Hovedside
METAR-TAF:

METAR-TAF

Lufthavner :

Trondheim lufthavn. Værnes

Trondheim, Norge

breddegrad: 63-28N, lengdegrad: 010-56E, høyde over havet: 1 m

Gjeldene værobservasjon

Denne rapporten ble laget for 12 minutter siden, klokken 01:50 UTC
Vind 3 kt fra Øst-nordøst, skiftende mellom Nord-nordøst og Øst-sørøst
Temperatur -3°C
Luftfuktighet 100%
Trykk 1040 hPa
Sikt 10 km eller mer
ingen skyer under 1500 m og ingen bygeskyer

METAR: ENVA 190150Z 07003KT 030V110 CAVOK M03/M03 Q1040 RMK WIND 670FT VRB03KT

Tid: 03:02 (02:02 UTC)

Varsel

Varsel gyldig fra 19. klokken 00 UTC til 19. klokken 24 UTC
Vind 7 kt fra Øst-sørøst
Sikt 10 km eller mer
ingen skyer under 1500 m og ingen bygeskyer

TAF: ENVA 1900/1924 11007KT CAVOK

Værobservasjoner og værvarsel for over 4000 flyplasser (METAR- og TAF-rapporter).

Tilgjengelige stasjoner er representert av de røde og gule prikkene på kartet.

Hold musepekeren over prikken for å se navnet på stasjonen.

Klikk så for å se værobservasjoner og -varsler.

For å forandre kartet kan du klikke på den grønne knappen med svart kryss for å zoome inn, på den grønne knappen med strek for å zoome ut, eller på de grønne pilene for å se tilstøtende kart.


METAR-TAF: